sensor_id;sensor_type;location;lat;lon;timestamp;pressure;altitude;pressure_sealevel;temperature;humidity
53340;BME280;46212;50.258;19.062;2023-09-30T00:01:21;98797.44;;;13.41;93.99
53340;BME280;46212;50.258;19.062;2023-09-30T00:03:47;98798.09;;;13.26;94.38
53340;BME280;46212;50.258;19.062;2023-09-30T00:06:12;98805.81;;;13.32;94.13
53340;BME280;46212;50.258;19.062;2023-09-30T00:08:38;98796.88;;;13.27;94.14
53340;BME280;46212;50.258;19.062;2023-09-30T00:11:05;98810.09;;;13.32;94.15
53340;BME280;46212;50.258;19.062;2023-09-30T00:13:31;98806.69;;;13.38;94.18
53340;BME280;46212;50.258;19.062;2023-09-30T00:15:57;98808.81;;;13.43;94.17
53340;BME280;46212;50.258;19.062;2023-09-30T00:18:23;98802.09;;;13.35;94.50
53340;BME280;46212;50.258;19.062;2023-09-30T00:20:48;98797.88;;;13.39;94.12
53340;BME280;46212;50.258;19.062;2023-09-30T00:23:13;98795.66;;;13.52;94.36
53340;BME280;46212;50.258;19.062;2023-09-30T00:25:39;98792.59;;;13.50;93.69
53340;BME280;46212;50.258;19.062;2023-09-30T00:28:04;98789.91;;;13.32;94.26
53340;BME280;46212;50.258;19.062;2023-09-30T00:30:30;98783.63;;;13.32;94.23
53340;BME280;46212;50.258;19.062;2023-09-30T00:32:55;98791.00;;;13.35;94.14
53340;BME280;46212;50.258;19.062;2023-09-30T00:35:21;98771.41;;;13.38;93.91
53340;BME280;46212;50.258;19.062;2023-09-30T00:37:46;98783.13;;;13.33;94.34
53340;BME280;46212;50.258;19.062;2023-09-30T00:40:13;98778.84;;;13.23;93.85
53340;BME280;46212;50.258;19.062;2023-09-30T00:42:39;98781.13;;;13.34;94.36
53340;BME280;46212;50.258;19.062;2023-09-30T00:45:05;98788.16;;;13.44;93.93
53340;BME280;46212;50.258;19.062;2023-09-30T00:47:33;98781.28;;;13.63;93.80
53340;BME280;46212;50.258;19.062;2023-09-30T00:49:59;98769.97;;;13.43;93.52
53340;BME280;46212;50.258;19.062;2023-09-30T00:52:25;98768.69;;;13.53;93.50
53340;BME280;46212;50.258;19.062;2023-09-30T00:54:52;98780.06;;;13.55;93.64
53340;BME280;46212;50.258;19.062;2023-09-30T00:57:20;98777.72;;;13.62;93.51
53340;BME280;46212;50.258;19.062;2023-09-30T00:59:46;98774.53;;;13.55;93.34
53340;BME280;46212;50.258;19.062;2023-09-30T01:02:12;98773.53;;;13.43;94.17
53340;BME280;46212;50.258;19.062;2023-09-30T01:04:38;98781.97;;;13.49;94.37
53340;BME280;46212;50.258;19.062;2023-09-30T01:07:03;98776.13;;;13.47;94.45
53340;BME280;46212;50.258;19.062;2023-09-30T01:09:30;98785.34;;;13.53;94.50
53340;BME280;46212;50.258;19.062;2023-09-30T01:52:19;98774.91;;;13.71;94.03
53340;BME280;46212;50.258;19.062;2023-09-30T01:54:44;98774.28;;;13.91;91.93
53340;BME280;46212;50.258;19.062;2023-09-30T01:57:09;98780.63;;;13.92;91.90
53340;BME280;46212;50.258;19.062;2023-09-30T01:59:35;98775.81;;;13.92;90.36
53340;BME280;46212;50.258;19.062;2023-09-30T02:02:00;98772.59;;;14.08;89.25
53340;BME280;46212;50.258;19.062;2023-09-30T02:04:27;98762.50;;;14.20;86.94
53340;BME280;46212;50.258;19.062;2023-09-30T02:06:52;98772.78;;;14.43;85.55
53340;BME280;46212;50.258;19.062;2023-09-30T02:09:17;98777.00;;;14.53;84.30
53340;BME280;46212;50.258;19.062;2023-09-30T02:11:43;98772.03;;;14.72;83.30
53340;BME280;46212;50.258;19.062;2023-09-30T02:14:09;98768.59;;;14.77;83.10
53340;BME280;46212;50.258;19.062;2023-09-30T02:16:40;98767.63;;;14.80;83.14
53340;BME280;46212;50.258;19.062;2023-09-30T02:19:05;98767.19;;;15.16;81.79
53340;BME280;46212;50.258;19.062;2023-09-30T02:21:32;98757.22;;;15.10;80.18
53340;BME280;46212;50.258;19.062;2023-09-30T02:23:57;98766.53;;;15.21;79.39
53340;BME280;46212;50.258;19.062;2023-09-30T02:26:22;98759.22;;;15.24;79.17
53340;BME280;46212;50.258;19.062;2023-09-30T02:28:51;98776.00;;;15.29;79.47
53340;BME280;46212;50.258;19.062;2023-09-30T02:31:17;98761.03;;;15.27;79.40
53340;BME280;46212;50.258;19.062;2023-09-30T02:33:43;98770.41;;;15.44;78.59
53340;BME280;46212;50.258;19.062;2023-09-30T02:36:09;98762.78;;;15.44;78.33
53340;BME280;46212;50.258;19.062;2023-09-30T02:38:35;98765.38;;;15.63;77.11
53340;BME280;46212;50.258;19.062;2023-09-30T02:41:03;98770.75;;;15.66;76.59
53340;BME280;46212;50.258;19.062;2023-09-30T02:43:29;98769.41;;;15.82;76.16
53340;BME280;46212;50.258;19.062;2023-09-30T02:45:54;98765.88;;;15.81;75.51
53340;BME280;46212;50.258;19.062;2023-09-30T02:48:20;98763.13;;;15.87;75.81
53340;BME280;46212;50.258;19.062;2023-09-30T02:50:45;98762.94;;;15.90;75.48
53340;BME280;46212;50.258;19.062;2023-09-30T02:53:11;98766.63;;;15.82;75.80
53340;BME280;46212;50.258;19.062;2023-09-30T02:55:38;98775.53;;;15.86;75.52
53340;BME280;46212;50.258;19.062;2023-09-30T02:58:04;98755.34;;;15.71;76.09
53340;BME280;46212;50.258;19.062;2023-09-30T03:00:29;98780.06;;;15.83;75.88
53340;BME280;46212;50.258;19.062;2023-09-30T03:03:00;98775.47;;;15.80;75.92
53340;BME280;46212;50.258;19.062;2023-09-30T03:05:27;98767.38;;;15.82;76.19
53340;BME280;46212;50.258;19.062;2023-09-30T03:07:53;98770.09;;;15.97;75.70
53340;BME280;46212;50.258;19.062;2023-09-30T03:10:19;98774.53;;;16.09;75.23
53340;BME280;46212;50.258;19.062;2023-09-30T03:12:51;98759.16;;;16.14;74.86
53340;BME280;46212;50.258;19.062;2023-09-30T03:15:17;98764.84;;;16.05;75.90
53340;BME280;46212;50.258;19.062;2023-09-30T03:17:43;98767.66;;;16.05;75.94
53340;BME280;46212;50.258;19.062;2023-09-30T03:20:09;98760.06;;;16.05;76.30
53340;BME280;46212;50.258;19.062;2023-09-30T03:22:42;98762.56;;;16.03;77.25
53340;BME280;46212;50.258;19.062;2023-09-30T03:25:10;98760.97;;;15.97;77.63
53340;BME280;46212;50.258;19.062;2023-09-30T03:27:36;98770.16;;;16.03;78.29
53340;BME280;46212;50.258;19.062;2023-09-30T03:30:06;98750.81;;;15.93;77.93
53340;BME280;46212;50.258;19.062;2023-09-30T03:32:31;98765.16;;;15.86;79.57
53340;BME280;46212;50.258;19.062;2023-09-30T03:34:59;98761.06;;;15.82;79.56
53340;BME280;46212;50.258;19.062;2023-09-30T03:37:26;98762.31;;;15.81;82.61
53340;BME280;46212;50.258;19.062;2023-09-30T03:39:54;98770.41;;;15.79;82.67
53340;BME280;46212;50.258;19.062;2023-09-30T03:42:19;98762.91;;;15.70;83.76
53340;BME280;46212;50.258;19.062;2023-09-30T03:44:45;98762.59;;;15.63;84.85
53340;BME280;46212;50.258;19.062;2023-09-30T03:47:11;98766.75;;;15.53;84.65
53340;BME280;46212;50.258;19.062;2023-09-30T03:49:36;98777.94;;;15.58;84.35
53340;BME280;46212;50.258;19.062;2023-09-30T03:52:04;98772.19;;;15.62;84.63
53340;BME280;46212;50.258;19.062;2023-09-30T03:54:29;98777.47;;;15.60;86.69
53340;BME280;46212;50.258;19.062;2023-09-30T03:56:55;98778.16;;;15.55;87.45
53340;BME280;46212;50.258;19.062;2023-09-30T03:59:20;98781.63;;;15.50;86.68
53340;BME280;46212;50.258;19.062;2023-09-30T04:01:46;98781.72;;;15.40;87.09
53340;BME280;46212;50.258;19.062;2023-09-30T04:04:12;98783.78;;;15.60;85.86
53340;BME280;46212;50.258;19.062;2023-09-30T04:06:38;98786.22;;;15.53;86.02
53340;BME280;46212;50.258;19.062;2023-09-30T04:09:04;98779.75;;;15.61;84.65
53340;BME280;46212;50.258;19.062;2023-09-30T04:11:35;98780.16;;;15.54;85.48
53340;BME280;46212;50.258;19.062;2023-09-30T04:14:01;98784.50;;;15.55;86.12
53340;BME280;46212;50.258;19.062;2023-09-30T04:16:26;98783.25;;;15.56;86.63
53340;BME280;46212;50.258;19.062;2023-09-30T04:18:54;98793.25;;;15.48;87.35
53340;BME280;46212;50.258;19.062;2023-09-30T04:21:20;98788.25;;;15.52;87.17
53340;BME280;46212;50.258;19.062;2023-09-30T04:23:46;98795.34;;;15.53;87.26
53340;BME280;46212;50.258;19.062;2023-09-30T04:26:11;98795.56;;;15.50;87.21
53340;BME280;46212;50.258;19.062;2023-09-30T04:28:37;98787.78;;;15.54;87.05
53340;BME280;46212;50.258;19.062;2023-09-30T04:31:02;98786.38;;;15.64;86.53
53340;BME280;46212;50.258;19.062;2023-09-30T04:33:28;98782.75;;;15.58;86.82
53340;BME280;46212;50.258;19.062;2023-09-30T04:35:53;98785.47;;;15.37;88.60
53340;BME280;46212;50.258;19.062;2023-09-30T04:38:19;98781.94;;;15.37;87.85
53340;BME280;46212;50.258;19.062;2023-09-30T04:40:44;98795.44;;;15.44;88.48
53340;BME280;46212;50.258;19.062;2023-09-30T04:43:13;98800.63;;;15.51;87.69
53340;BME280;46212;50.258;19.062;2023-09-30T04:45:39;98805.31;;;15.45;88.13
53340;BME280;46212;50.258;19.062;2023-09-30T04:48:05;98802.53;;;15.45;88.15
53340;BME280;46212;50.258;19.062;2023-09-30T04:50:31;98792.56;;;15.53;87.76
53340;BME280;46212;50.258;19.062;2023-09-30T04:52:57;98808.31;;;15.56;87.63
53340;BME280;46212;50.258;19.062;2023-09-30T04:55:25;98804.25;;;15.42;88.40
53340;BME280;46212;50.258;19.062;2023-09-30T04:57:51;98797.97;;;15.27;89.22
53340;BME280;46212;50.258;19.062;2023-09-30T05:00:18;98805.22;;;15.39;89.81
53340;BME280;46212;50.258;19.062;2023-09-30T05:02:47;98809.63;;;15.46;89.36
53340;BME280;46212;50.258;19.062;2023-09-30T05:05:13;98819.72;;;15.43;89.30
53340;BME280;46212;50.258;19.062;2023-09-30T05:07:39;98816.16;;;15.43;89.42
53340;BME280;46212;50.258;19.062;2023-09-30T05:10:05;98812.03;;;15.38;89.64
53340;BME280;46212;50.258;19.062;2023-09-30T05:12:35;98823.94;;;15.39;89.68
53340;BME280;46212;50.258;19.062;2023-09-30T05:15:00;98819.38;;;15.51;89.56
53340;BME280;46212;50.258;19.062;2023-09-30T05:17:27;98823.84;;;15.48;89.82
53340;BME280;46212;50.258;19.062;2023-09-30T05:19:53;98829.13;;;15.46;89.26
53340;BME280;46212;50.258;19.062;2023-09-30T05:22:19;98829.22;;;15.52;89.41
53340;BME280;46212;50.258;19.062;2023-09-30T05:24:50;98841.78;;;15.62;88.81
53340;BME280;46212;50.258;19.062;2023-09-30T05:27:15;98836.41;;;15.58;88.84
53340;BME280;46212;50.258;19.062;2023-09-30T05:29:42;98844.88;;;15.49;90.01
53340;BME280;46212;50.258;19.062;2023-09-30T05:32:08;98852.16;;;15.47;90.96
53340;BME280;46212;50.258;19.062;2023-09-30T05:34:34;98856.38;;;15.42;91.30
53340;BME280;46212;50.258;19.062;2023-09-30T05:36:59;98860.69;;;15.43;91.97
53340;BME280;46212;50.258;19.062;2023-09-30T05:39:24;98870.59;;;15.44;92.10
53340;BME280;46212;50.258;19.062;2023-09-30T05:41:50;98867.91;;;15.50;91.40
53340;BME280;46212;50.258;19.062;2023-09-30T05:44:16;98866.38;;;15.63;91.43
53340;BME280;46212;50.258;19.062;2023-09-30T05:46:41;98874.78;;;15.69;91.53
53340;BME280;46212;50.258;19.062;2023-09-30T05:49:09;98875.38;;;15.58;91.95
53340;BME280;46212;50.258;19.062;2023-09-30T05:51:41;98878.38;;;15.55;91.28
53340;BME280;46212;50.258;19.062;2023-09-30T05:54:07;98874.59;;;15.58;91.41
53340;BME280;46212;50.258;19.062;2023-09-30T05:56:37;98889.81;;;15.57;92.06
53340;BME280;46212;50.258;19.062;2023-09-30T05:59:08;98896.22;;;15.63;91.73
53340;BME280;46212;50.258;19.062;2023-09-30T06:01:34;98896.69;;;15.76;90.18
53340;BME280;46212;50.258;19.062;2023-09-30T06:04:00;98897.63;;;15.73;90.08
53340;BME280;46212;50.258;19.062;2023-09-30T06:06:26;98889.94;;;15.68;90.16
53340;BME280;46212;50.258;19.062;2023-09-30T06:08:53;98893.31;;;15.72;90.52
53340;BME280;46212;50.258;19.062;2023-09-30T06:11:20;98895.13;;;15.75;91.15
53340;BME280;46212;50.258;19.062;2023-09-30T06:13:52;98896.56;;;15.85;91.44
53340;BME280;46212;50.258;19.062;2023-09-30T06:16:18;98899.22;;;15.94;91.00
53340;BME280;46212;50.258;19.062;2023-09-30T06:18:44;98906.59;;;15.97;90.93
53340;BME280;46212;50.258;19.062;2023-09-30T06:21:10;98905.56;;;15.94;90.45
53340;BME280;46212;50.258;19.062;2023-09-30T06:23:36;98907.09;;;16.16;89.89
53340;BME280;46212;50.258;19.062;2023-09-30T06:26:01;98911.22;;;16.20;89.36
53340;BME280;46212;50.258;19.062;2023-09-30T06:28:28;98910.97;;;16.38;88.51
53340;BME280;46212;50.258;19.062;2023-09-30T06:30:56;98920.63;;;16.43;88.55
53340;BME280;46212;50.258;19.062;2023-09-30T06:33:21;98914.44;;;16.54;88.48
53340;BME280;46212;50.258;19.062;2023-09-30T06:35:46;98918.13;;;16.65;88.26
53340;BME280;46212;50.258;19.062;2023-09-30T06:38:19;98919.13;;;16.62;87.97
53340;BME280;46212;50.258;19.062;2023-09-30T06:40:44;98920.38;;;16.61;88.51
53340;BME280;46212;50.258;19.062;2023-09-30T06:43:12;98924.91;;;16.59;88.77
53340;BME280;46212;50.258;19.062;2023-09-30T06:45:37;98928.41;;;16.74;88.12
53340;BME280;46212;50.258;19.062;2023-09-30T06:48:10;98931.97;;;16.74;88.43
53340;BME280;46212;50.258;19.062;2023-09-30T06:50:40;98927.69;;;16.79;87.93
53340;BME280;46212;50.258;19.062;2023-09-30T06:53:06;98934.44;;;16.92;87.62
53340;BME280;46212;50.258;19.062;2023-09-30T06:55:31;98928.63;;;16.96;87.00
53340;BME280;46212;50.258;19.062;2023-09-30T06:57:57;98935.56;;;17.06;86.49
53340;BME280;46212;50.258;19.062;2023-09-30T07:00:22;98942.44;;;17.05;86.70
53340;BME280;46212;50.258;19.062;2023-09-30T07:02:48;98947.97;;;16.99;86.86
53340;BME280;46212;50.258;19.062;2023-09-30T07:05:14;98927.75;;;17.10;86.47
53340;BME280;46212;50.258;19.062;2023-09-30T07:07:41;98942.66;;;17.02;87.11
53340;BME280;46212;50.258;19.062;2023-09-30T07:10:09;98950.28;;;17.07;87.37
53340;BME280;46212;50.258;19.062;2023-09-30T07:12:35;98943.91;;;17.00;87.41
53340;BME280;46212;50.258;19.062;2023-09-30T07:15:05;98949.06;;;17.08;87.31
53340;BME280;46212;50.258;19.062;2023-09-30T07:17:31;98939.91;;;17.07;87.11
53340;BME280;46212;50.258;19.062;2023-09-30T07:19:56;98952.19;;;17.15;87.50
53340;BME280;46212;50.258;19.062;2023-09-30T07:22:22;98955.22;;;16.91;88.99
53340;BME280;46212;50.258;19.062;2023-09-30T07:24:48;98957.66;;;16.84;88.91
53340;BME280;46212;50.258;19.062;2023-09-30T07:27:13;98958.78;;;16.72;90.35
53340;BME280;46212;50.258;19.062;2023-09-30T07:29:38;98962.03;;;16.90;89.45
53340;BME280;46212;50.258;19.062;2023-09-30T07:32:04;98970.38;;;16.65;91.99
53340;BME280;46212;50.258;19.062;2023-09-30T07:34:30;98966.63;;;16.68;90.23
53340;BME280;46212;50.258;19.062;2023-09-30T07:36:56;98972.88;;;16.63;91.31
53340;BME280;46212;50.258;19.062;2023-09-30T07:39:21;98980.88;;;16.75;91.17
53340;BME280;46212;50.258;19.062;2023-09-30T07:41:46;98969.88;;;16.86;90.74
53340;BME280;46212;50.258;19.062;2023-09-30T07:44:12;98980.63;;;16.73;91.77
53340;BME280;46212;50.258;19.062;2023-09-30T07:46:37;98969.72;;;16.75;92.13
53340;BME280;46212;50.258;19.062;2023-09-30T07:49:03;98981.03;;;16.86;91.75
53340;BME280;46212;50.258;19.062;2023-09-30T07:51:29;98971.34;;;16.82;92.62
53340;BME280;46212;50.258;19.062;2023-09-30T07:53:55;98985.81;;;17.06;92.70
53340;BME280;46212;50.258;19.062;2023-09-30T07:56:20;98986.38;;;17.10;92.96
53340;BME280;46212;50.258;19.062;2023-09-30T07:58:48;98992.91;;;17.27;92.50
53340;BME280;46212;50.258;19.062;2023-09-30T08:01:14;98986.75;;;17.23;93.63
53340;BME280;46212;50.258;19.062;2023-09-30T08:03:40;98993.06;;;16.98;94.80
53340;BME280;46212;50.258;19.062;2023-09-30T08:06:07;98990.34;;;17.04;95.45
53340;BME280;46212;50.258;19.062;2023-09-30T08:08:34;98995.66;;;17.02;96.12
53340;BME280;46212;50.258;19.062;2023-09-30T08:11:00;98990.66;;;17.31;95.56
53340;BME280;46212;50.258;19.062;2023-09-30T08:13:25;98988.31;;;17.24;95.85
53340;BME280;46212;50.258;19.062;2023-09-30T08:15:51;98988.66;;;17.58;94.92
53340;BME280;46212;50.258;19.062;2023-09-30T08:18:18;98992.50;;;17.91;93.75
53340;BME280;46212;50.258;19.062;2023-09-30T08:20:44;98996.16;;;17.72;93.89
53340;BME280;46212;50.258;19.062;2023-09-30T08:23:09;98997.09;;;17.94;93.68
53340;BME280;46212;50.258;19.062;2023-09-30T08:25:36;99008.09;;;18.03;93.70
53340;BME280;46212;50.258;19.062;2023-09-30T08:28:03;98997.44;;;18.08;93.97
53340;BME280;46212;50.258;19.062;2023-09-30T08:30:29;98998.72;;;18.07;95.30
53340;BME280;46212;50.258;19.062;2023-09-30T08:32:54;99002.28;;;18.07;95.16
53340;BME280;46212;50.258;19.062;2023-09-30T08:35:19;99003.34;;;18.15;94.70
53340;BME280;46212;50.258;19.062;2023-09-30T08:37:45;99001.50;;;18.07;95.57
53340;BME280;46212;50.258;19.062;2023-09-30T08:40:11;99002.56;;;18.15;95.53
53340;BME280;46212;50.258;19.062;2023-09-30T08:42:38;98992.38;;;18.12;95.62
53340;BME280;46212;50.258;19.062;2023-09-30T08:45:04;98998.69;;;18.01;96.41
53340;BME280;46212;50.258;19.062;2023-09-30T08:47:32;98996.13;;;18.03;96.41
53340;BME280;46212;50.258;19.062;2023-09-30T08:49:59;98994.59;;;18.02;96.81
53340;BME280;46212;50.258;19.062;2023-09-30T08:52:32;98992.78;;;17.99;97.35
53340;BME280;46212;50.258;19.062;2023-09-30T08:54:58;99000.19;;;18.02;97.39
53340;BME280;46212;50.258;19.062;2023-09-30T08:57:24;98992.22;;;17.89;98.30
53340;BME280;46212;50.258;19.062;2023-09-30T08:59:50;98985.78;;;17.78;99.13
53340;BME280;46212;50.258;19.062;2023-09-30T09:02:18;98988.34;;;17.81;99.40
53340;BME280;46212;50.258;19.062;2023-09-30T09:04:45;98995.91;;;18.07;98.51
53340;BME280;46212;50.258;19.062;2023-09-30T09:07:11;98995.69;;;18.10;98.20
53340;BME280;46212;50.258;19.062;2023-09-30T09:09:36;99002.28;;;18.07;97.69
53340;BME280;46212;50.258;19.062;2023-09-30T09:12:02;99011.28;;;17.91;98.38
53340;BME280;46212;50.258;19.062;2023-09-30T09:14:41;99009.75;;;17.90;98.33
53340;BME280;46212;50.258;19.062;2023-09-30T09:17:08;99005.94;;;17.62;100.00
53340;BME280;46212;50.258;19.062;2023-09-30T09:19:34;99011.63;;;17.47;100.00
53340;BME280;46212;50.258;19.062;2023-09-30T09:22:01;99013.53;;;17.35;100.00
53340;BME280;46212;50.258;19.062;2023-09-30T09:24:31;99016.00;;;17.28;100.00
53340;BME280;46212;50.258;19.062;2023-09-30T09:27:13;99010.41;;;17.28;100.00
53340;BME280;46212;50.258;19.062;2023-09-30T09:29:42;99022.41;;;17.34;100.00
53340;BME280;46212;50.258;19.062;2023-09-30T09:32:12;99019.00;;;17.24;100.00
53340;BME280;46212;50.258;19.062;2023-09-30T09:34:41;99026.72;;;17.35;100.00
53340;BME280;46212;50.258;19.062;2023-09-30T09:37:19;99023.81;;;17.24;100.00
53340;BME280;46212;50.258;19.062;2023-09-30T09:39:55;99025.34;;;17.25;100.00
53340;BME280;46212;50.258;19.062;2023-09-30T09:42:31;99029.47;;;17.29;100.00
53340;BME280;46212;50.258;19.062;2023-09-30T09:45:01;99034.09;;;17.12;100.00
53340;BME280;46212;50.258;19.062;2023-09-30T09:47:29;99037.56;;;17.27;100.00
53340;BME280;46212;50.258;19.062;2023-09-30T09:49:57;99031.56;;;17.14;100.00
53340;BME280;46212;50.258;19.062;2023-09-30T09:52:23;99029.97;;;17.28;100.00
53340;BME280;46212;50.258;19.062;2023-09-30T09:54:50;99036.13;;;17.58;100.00
53340;BME280;46212;50.258;19.062;2023-09-30T09:57:16;99033.31;;;17.58;100.00
53340;BME280;46212;50.258;19.062;2023-09-30T09:59:43;99033.06;;;17.56;100.00
53340;BME280;46212;50.258;19.062;2023-09-30T10:02:12;99039.25;;;17.65;100.00
53340;BME280;46212;50.258;19.062;2023-09-30T10:04:45;99039.69;;;17.84;100.00
53340;BME280;46212;50.258;19.062;2023-09-30T10:07:15;99024.75;;;17.92;100.00
53340;BME280;46212;50.258;19.062;2023-09-30T10:09:46;99030.31;;;18.24;100.00
53340;BME280;46212;50.258;19.062;2023-09-30T10:12:14;99031.44;;;18.00;100.00
53340;BME280;46212;50.258;19.062;2023-09-30T10:14:40;99031.44;;;18.00;100.00
53340;BME280;46212;50.258;19.062;2023-09-30T10:17:05;99030.34;;;17.92;100.00
53340;BME280;46212;50.258;19.062;2023-09-30T10:19:31;99036.97;;;17.95;100.00
53340;BME280;46212;50.258;19.062;2023-09-30T10:24:42;99030.88;;;17.96;100.00
53340;BME280;46212;50.258;19.062;2023-09-30T10:29:56;99041.00;;;17.88;100.00
53340;BME280;46212;50.258;19.062;2023-09-30T10:32:23;99047.91;;;17.98;100.00
53340;BME280;46212;50.258;19.062;2023-09-30T10:34:49;99052.75;;;17.98;100.00
53340;BME280;46212;50.258;19.062;2023-09-30T10:37:20;99046.84;;;18.22;100.00
53340;BME280;46212;50.258;19.062;2023-09-30T10:39:58;99040.19;;;18.14;100.00
53340;BME280;46212;50.258;19.062;2023-09-30T10:42:49;99049.56;;;18.11;100.00
53340;BME280;46212;50.258;19.062;2023-09-30T10:50:52;99045.72;;;18.08;100.00
53340;BME280;46212;50.258;19.062;2023-09-30T10:53:19;99048.00;;;18.04;100.00
53340;BME280;46212;50.258;19.062;2023-09-30T10:55:45;99048.72;;;18.04;100.00
53340;BME280;46212;50.258;19.062;2023-09-30T10:58:15;99057.50;;;17.92;100.00
53340;BME280;46212;50.258;19.062;2023-09-30T11:00:54;99042.09;;;18.02;100.00
53340;BME280;46212;50.258;19.062;2023-09-30T11:03:23;99048.06;;;18.15;100.00
53340;BME280;46212;50.258;19.062;2023-09-30T11:05:48;99050.31;;;18.11;100.00
53340;BME280;46212;50.258;19.062;2023-09-30T11:08:16;99048.25;;;18.06;100.00
53340;BME280;46212;50.258;19.062;2023-09-30T11:10:51;99047.66;;;17.96;100.00
53340;BME280;46212;50.258;19.062;2023-09-30T11:13:18;99050.78;;;18.04;100.00
53340;BME280;46212;50.258;19.062;2023-09-30T11:15:44;99053.91;;;17.86;100.00
53340;BME280;46212;50.258;19.062;2023-09-30T11:18:17;99057.59;;;17.72;100.00
53340;BME280;46212;50.258;19.062;2023-09-30T11:20:43;99073.47;;;17.60;100.00
53340;BME280;46212;50.258;19.062;2023-09-30T11:23:10;99065.72;;;17.49;100.00
53340;BME280;46212;50.258;19.062;2023-09-30T11:25:37;99060.13;;;17.49;100.00
53340;BME280;46212;50.258;19.062;2023-09-30T11:28:12;99074.53;;;17.42;100.00
53340;BME280;46212;50.258;19.062;2023-09-30T11:30:58;99065.34;;;17.16;100.00
53340;BME280;46212;50.258;19.062;2023-09-30T11:33:25;99074.28;;;17.20;100.00
53340;BME280;46212;50.258;19.062;2023-09-30T11:36:03;99073.16;;;16.92;100.00
53340;BME280;46212;50.258;19.062;2023-09-30T11:38:31;99085.69;;;16.82;100.00
53340;BME280;46212;50.258;19.062;2023-09-30T11:41:03;99075.91;;;16.72;100.00
53340;BME280;46212;50.258;19.062;2023-09-30T11:43:31;99076.84;;;16.48;100.00
53340;BME280;46212;50.258;19.062;2023-09-30T11:46:09;99086.03;;;16.69;100.00
53340;BME280;46212;50.258;19.062;2023-09-30T11:48:36;99078.94;;;16.88;100.00
53340;BME280;46212;50.258;19.062;2023-09-30T11:51:02;99085.13;;;16.78;100.00
53340;BME280;46212;50.258;19.062;2023-09-30T11:53:32;99096.59;;;16.80;100.00
53340;BME280;46212;50.258;19.062;2023-09-30T11:56:01;99090.38;;;16.90;97.42
53340;BME280;46212;50.258;19.062;2023-09-30T11:58:32;99089.53;;;16.84;97.21
53340;BME280;46212;50.258;19.062;2023-09-30T12:00:58;99105.94;;;16.77;96.68
53340;BME280;46212;50.258;19.062;2023-09-30T12:03:27;99096.41;;;16.69;94.60
53340;BME280;46212;50.258;19.062;2023-09-30T12:05:53;99100.41;;;16.82;94.57
53340;BME280;46212;50.258;19.062;2023-09-30T12:08:23;99103.41;;;16.79;94.56
53340;BME280;46212;50.258;19.062;2023-09-30T12:10:49;99106.13;;;16.73;95.34
53340;BME280;46212;50.258;19.062;2023-09-30T12:13:15;99090.84;;;16.69;94.65
53340;BME280;46212;50.258;19.062;2023-09-30T12:15:41;99100.88;;;16.61;94.73
53340;BME280;46212;50.258;19.062;2023-09-30T12:18:06;99094.72;;;16.57;94.71
53340;BME280;46212;50.258;19.062;2023-09-30T12:20:32;99097.03;;;16.58;95.64
53340;BME280;46212;50.258;19.062;2023-09-30T12:22:58;99089.03;;;16.66;94.35
53340;BME280;46212;50.258;19.062;2023-09-30T12:25:24;99093.94;;;16.56;94.40
53340;BME280;46212;50.258;19.062;2023-09-30T12:27:50;99085.47;;;16.51;94.72
53340;BME280;46212;50.258;19.062;2023-09-30T12:30:16;99100.16;;;16.66;93.97
53340;BME280;46212;50.258;19.062;2023-09-30T12:32:45;99102.88;;;16.60;93.71
53340;BME280;46212;50.258;19.062;2023-09-30T12:35:10;99102.97;;;16.66;93.41
53340;BME280;46212;50.258;19.062;2023-09-30T12:37:37;99108.81;;;16.53;93.04
53340;BME280;46212;50.258;19.062;2023-09-30T12:40:04;99120.59;;;16.57;93.57
53340;BME280;46212;50.258;19.062;2023-09-30T12:42:32;99120.69;;;16.48;93.35
53340;BME280;46212;50.258;19.062;2023-09-30T12:45:00;99123.75;;;16.50;93.87
53340;BME280;46212;50.258;19.062;2023-09-30T12:47:25;99116.91;;;16.51;93.74
53340;BME280;46212;50.258;19.062;2023-09-30T12:49:52;99125.47;;;16.47;94.44
53340;BME280;46212;50.258;19.062;2023-09-30T12:52:19;99119.22;;;16.53;93.55
53340;BME280;46212;50.258;19.062;2023-09-30T12:54:45;99123.06;;;16.40;94.31
53340;BME280;46212;50.258;19.062;2023-09-30T12:57:10;99123.09;;;16.55;93.49
53340;BME280;46212;50.258;19.062;2023-09-30T12:59:38;99130.66;;;16.69;92.65
53340;BME280;46212;50.258;19.062;2023-09-30T13:02:04;99114.09;;;17.00;90.98
53340;BME280;46212;50.258;19.062;2023-09-30T13:04:30;99143.06;;;17.23;89.75
53340;BME280;46212;50.258;19.062;2023-09-30T13:06:56;99132.81;;;17.35;88.09
53340;BME280;46212;50.258;19.062;2023-09-30T13:09:21;99120.44;;;17.41;86.66
53340;BME280;46212;50.258;19.062;2023-09-30T13:11:47;99129.25;;;17.54;86.36
53340;BME280;46212;50.258;19.062;2023-09-30T13:14:12;99126.53;;;17.60;85.22
53340;BME280;46212;50.258;19.062;2023-09-30T13:16:38;99124.59;;;17.66;85.43
53340;BME280;46212;50.258;19.062;2023-09-30T13:19:04;99138.44;;;17.81;83.83
53340;BME280;46212;50.258;19.062;2023-09-30T13:21:29;99137.41;;;17.78;84.33
53340;BME280;46212;50.258;19.062;2023-09-30T13:23:55;99133.56;;;18.01;82.21
53340;BME280;46212;50.258;19.062;2023-09-30T13:26:20;99135.72;;;18.12;82.45
53340;BME280;46212;50.258;19.062;2023-09-30T13:28:46;99141.94;;;18.27;81.39
53340;BME280;46212;50.258;19.062;2023-09-30T13:31:11;99137.03;;;18.17;81.52
53340;BME280;46212;50.258;19.062;2023-09-30T13:33:37;99140.66;;;18.23;80.86
53340;BME280;46212;50.258;19.062;2023-09-30T13:36:03;99139.94;;;18.02;81.48
53340;BME280;46212;50.258;19.062;2023-09-30T13:38:29;99144.91;;;17.92;81.11